Time;durP1;ratioP1;P1;durP2;ratioP2;P2;SDS_P1;SDS_P2;PMS_P1;PMS_P2;Temp;Humidity;BMP_temperature;BMP_pressure;BME280_temperature;BME280_humidity;BME280_pressure;Samples;Min_cycle;Max_cycle;Signal;HPM_P1;HPM_P2
2021/12/07 00:00:55;;;;;;;13.03;10.17;;;-2.90;99.90;-4.20;100191;;;;581858;247;24103;-79
2021/12/07 00:03:23;;;;;;;13.50;10.10;;;-2.90;99.90;-4.20;100185;;;;573268;247;25121;-78
2021/12/07 00:05:51;;;;;;;12.43;10.57;;;-3.00;99.90;-4.20;100176;;;;573418;247;24146;-79
2021/12/07 00:08:19;;;;;;;14.00;11.27;;;-3.00;99.90;-4.30;100172;;;;573190;247;25159;-79
2021/12/07 00:10:49;;;;;;;13.10;10.60;;;-2.90;99.90;-4.20;100177;;;;573205;247;25193;-78
2021/12/07 00:13:14;;;;;;;13.37;11.47;;;-3.00;99.90;-4.20;100174;;;;573002;247;24171;-78
2021/12/07 00:15:46;;;;;;;15.20;12.53;;;-2.90;99.90;-4.20;100175;;;;573575;246;24151;-78
2021/12/07 00:18:10;;;;;;;14.70;12.10;;;-2.90;99.90;-4.20;100170;;;;573291;246;24097;-78
2021/12/07 00:20:39;;;;;;;14.83;12.63;;;-2.90;99.90;-4.10;100171;;;;573708;246;24120;-78
2021/12/07 00:23:08;;;;;;;14.27;12.77;;;-2.80;99.90;-4.10;100175;;;;576132;245;24153;-78
2021/12/07 00:25:36;;;;;;;14.00;11.73;;;-2.80;99.90;-4.10;100182;;;;576060;245;24088;-76
2021/12/07 00:28:05;;;;;;;16.57;12.53;;;-2.80;99.90;-4.10;100182;;;;566470;245;35181;-79
2021/12/07 00:30:36;;;;;;;14.57;10.53;;;-2.80;99.90;-4.10;100181;;;;576014;245;24152;-77
2021/12/07 00:33:19;;;;;;;13.23;10.67;;;-2.90;99.90;-4.10;100181;;;;575490;245;24079;-79
2021/12/07 00:35:45;;;;;;;14.57;12.83;;;-2.90;99.90;-4.20;100168;;;;581269;247;24114;-76
2021/12/07 00:38:13;;;;;;;15.03;12.10;;;-2.90;99.90;-4.10;100172;;;;571954;247;24161;-83
2021/12/07 00:40:41;;;;;;;15.57;13.00;;;-2.90;99.90;-4.10;100166;;;;572552;247;24099;-78
2021/12/07 00:43:10;;;;;;;13.63;12.20;;;-2.80;99.90;-4.10;100161;;;;572778;247;24132;-81
2021/12/07 00:45:41;;;;;;;16.03;12.43;;;-2.80;99.90;-4.10;100156;;;;593411;241;24140;-79
2021/12/07 00:48:06;;;;;;;15.03;12.77;;;-2.80;99.90;-4.00;100163;;;;593114;242;24049;-80
2021/12/07 00:50:34;;;;;;;13.80;12.40;;;-2.70;99.90;-4.00;100168;;;;573144;246;24077;-79
2021/12/07 00:53:02;;;;;;;15.27;12.57;;;-2.70;99.90;-4.00;100172;;;;583613;242;24043;-78
2021/12/07 00:55:29;;;;;;;17.37;12.97;;;-2.70;99.90;-4.00;100164;;;;593215;242;25074;-77
2021/12/07 00:57:59;;;;;;;17.57;12.87;;;-2.70;99.90;-4.00;100175;;;;572863;245;24268;-80
2021/12/07 01:00:25;;;;;;;19.00;14.27;;;-2.70;99.90;-4.00;100184;;;;581232;247;24168;-80
2021/12/07 01:02:54;;;;;;;18.03;14.77;;;-2.70;99.90;-4.00;100182;;;;572263;247;24084;-81
2021/12/07 01:05:27;;;;;;;19.80;14.57;;;-2.80;99.90;-4.10;100185;;;;593185;242;24103;-77
2021/12/07 01:08:08;;;;;;;19.13;15.20;;;-2.80;99.90;-4.10;100178;;;;580745;242;24193;-81
2021/12/07 01:26:40;;;;;;;13.83;11.67;;;-3.10;99.90;-4.30;100176;;;;575686;246;24070;-78
2021/12/07 01:29:08;;;;;;;13.83;10.93;;;-3.10;99.90;-4.30;100167;;;;582760;245;24105;-76
2021/12/07 01:31:51;;;;;;;13.30;11.40;;;-3.10;99.90;-4.40;100161;;;;573577;246;24103;-77
2021/12/07 01:35:25;;;;;;;13.83;11.30;;;-3.10;99.90;-4.40;100163;;;;582679;246;24147;-76
2021/12/07 01:37:04;;;;;;;12.57;10.47;;;-3.10;99.90;-4.40;100158;;;;577358;242;24074;-76
2021/12/07 02:00:32;;;;;;;11.83;9.80;;;-3.30;99.90;-4.60;100168;;;;584508;246;24069;-75
2021/12/07 02:03:00;;;;;;;12.37;9.37;;;-3.30;99.90;-4.60;100162;;;;570469;246;24072;-78
2021/12/07 02:05:28;;;;;;;11.90;9.43;;;-3.30;99.90;-4.60;100155;;;;575445;246;24124;-76
2021/12/07 02:07:56;;;;;;;9.50;8.50;;;-3.30;99.90;-4.60;100162;;;;575384;246;24091;-76
2021/12/07 02:10:26;;;;;;;9.03;8.13;;;-3.30;99.90;-4.70;100146;;;;571703;249;24096;-77
2021/12/07 02:12:55;;;;;;;13.60;10.40;;;-3.40;99.90;-4.70;100147;;;;554570;255;24107;-76
2021/12/07 02:15:21;;;;;;;11.30;9.80;;;-3.30;99.90;-4.60;100151;;;;560086;251;24175;-76
2021/12/07 02:17:49;;;;;;;10.47;8.83;;;-3.40;99.90;-4.60;100149;;;;560681;251;24137;-77
2021/12/07 02:20:20;;;;;;;10.60;9.50;;;-3.30;99.90;-4.60;100152;;;;560738;251;24103;-77
2021/12/07 02:22:48;;;;;;;12.07;10.40;;;-3.30;99.90;-4.50;100139;;;;572958;250;24084;-78
2021/12/07 02:25:13;;;;;;;12.30;10.27;;;-3.30;99.90;-4.50;100147;;;;555805;251;35374;-77
2021/12/07 02:27:45;;;;;;;12.03;8.63;;;-3.20;99.90;-4.40;100153;;;;560263;251;24118;-76
2021/12/07 02:30:09;;;;;;;10.67;9.57;;;-3.10;99.90;-4.50;100155;;;;560800;251;24112;-76
2021/12/07 02:32:40;;;;;;;11.07;9.80;;;-3.20;99.90;-4.50;100155;;;;562381;251;24079;-76
2021/12/07 02:35:08;;;;;;;16.07;11.20;;;-3.20;99.90;-4.60;100152;;;;562036;251;24165;-77
2021/12/07 02:37:33;;;;;;;11.57;9.50;;;-3.20;99.90;-4.60;100153;;;;562039;251;24087;-76
2021/12/07 02:40:01;;;;;;;7.27;6.43;;;-3.30;99.90;-4.60;100145;;;;565753;251;24087;-76
2021/12/07 02:42:28;;;;;;;8.73;7.47;;;-3.30;99.90;-4.70;100137;;;;563485;251;24085;-75
2021/12/07 02:44:56;;;;;;;7.83;7.03;;;-3.40;99.90;-4.70;100145;;;;560741;251;24099;-77
2021/12/07 02:47:28;;;;;;;7.77;6.97;;;-3.40;99.90;-4.70;100146;;;;560824;251;24078;-75
2021/12/07 02:49:52;;;;;;;7.13;6.43;;;-3.40;99.90;-4.70;100148;;;;572993;250;24127;-78
2021/12/07 02:52:20;;;;;;;8.33;6.33;;;-3.40;99.90;-4.70;100147;;;;560560;251;24117;-77
2021/12/07 02:54:50;;;;;;;7.90;7.10;;;-3.50;99.90;-4.80;100140;;;;562590;251;24088;-76
2021/12/07 02:57:17;;;;;;;7.43;6.67;;;-3.50;99.90;-4.80;100140;;;;562289;251;24138;-78
2021/12/07 02:59:48;;;;;;;9.13;7.57;;;-3.50;99.90;-4.80;100143;;;;560281;251;24090;-76
2021/12/07 03:02:14;;;;;;;8.30;6.57;;;-3.50;99.90;-4.80;100151;;;;564376;251;24075;-78
2021/12/07 03:04:51;;;;;;;8.03;7.20;;;-3.50;99.90;-4.80;100154;;;;560212;251;24119;-77
2021/12/07 03:07:19;;;;;;;8.83;7.83;;;-3.50;99.90;-4.80;100167;;;;563883;251;24083;-77
2021/12/07 03:26:03;;;;;;;7.10;6.40;;;-3.50;99.90;-4.80;100182;;;;561909;251;24104;-77
2021/12/07 03:28:23;;;;;;;7.37;6.43;;;-3.50;99.90;-4.80;100176;;;;559929;251;24106;-80
2021/12/07 03:30:51;;;;;;;7.80;6.90;;;-3.50;99.90;-4.90;100166;;;;559931;251;24148;-81
2021/12/07 03:33:19;;;;;;;8.50;7.60;;;-3.50;99.90;-4.90;100167;;;;562154;251;24084;-77
2021/12/07 03:35:50;;;;;;;8.03;6.70;;;-3.60;99.90;-4.80;100172;;;;562121;251;25469;-77
2021/12/07 03:38:15;;;;;;;8.27;6.60;;;-3.50;99.90;-4.80;100170;;;;562064;251;24135;-76
2021/12/07 03:40:43;;;;;;;8.17;6.20;;;-3.50;99.90;-4.80;100162;;;;560069;251;24102;-79
2021/12/07 03:43:13;;;;;;;6.90;6.20;;;-3.50;99.90;-4.80;100171;;;;559864;251;24082;-76
2021/12/07 03:45:40;;;;;;;7.57;6.67;;;-3.50;99.90;-4.80;100173;;;;560711;251;24085;-76
2021/12/07 03:48:08;;;;;;;6.37;5.03;;;-3.50;99.90;-4.90;100168;;;;574380;249;24123;-76
2021/12/07 03:50:39;;;;;;;7.77;6.40;;;-3.50;99.90;-4.90;100179;;;;570837;250;24116;-76
2021/12/07 03:53:04;;;;;;;7.93;6.10;;;-3.60;99.90;-4.90;100183;;;;563321;250;24151;-80
2021/12/07 03:55:33;;;;;;;6.53;5.50;;;-3.60;99.90;-4.90;100186;;;;562483;251;24224;-77
2021/12/07 03:58:02;;;;;;;8.57;5.80;;;-3.70;99.90;-5.00;100185;;;;560479;252;24213;-77
2021/12/07 04:00:33;;;;;;;7.17;5.83;;;-3.70;99.90;-5.10;100194;;;;565119;251;24216;-77
2021/12/07 04:03:02;;;;;;;7.20;5.97;;;-3.70;99.90;-5.10;100178;;;;570471;251;24093;-80
2021/12/07 04:05:26;;;;;;;7.23;6.37;;;-3.80;99.90;-5.10;100181;;;;575092;247;24148;-77
2021/12/07 04:07:53;;;;;;;7.17;6.47;;;-3.80;99.90;-5.10;100177;;;;572775;247;24082;-77
2021/12/07 04:10:24;;;;;;;7.73;6.97;;;-3.80;99.90;-5.20;100182;;;;559931;252;24167;-77
2021/12/07 04:12:52;;;;;;;9.50;8.17;;;-3.90;99.90;-5.20;100191;;;;570619;248;24127;-77
2021/12/07 04:15:17;;;;;;;8.57;7.53;;;-3.90;99.90;-5.20;100177;;;;580579;246;24089;-78
2021/12/07 04:17:48;;;;;;;7.70;6.90;;;-3.90;99.90;-5.20;100190;;;;573964;246;24098;-80
2021/12/07 04:20:13;;;;;;;8.27;7.17;;;-3.90;99.90;-5.20;100189;;;;578810;246;24112;-80
2021/12/07 04:22:44;;;;;;;8.37;7.30;;;-3.90;99.90;-5.30;100185;;;;574939;246;24128;-77
2021/12/07 04:25:09;;;;;;;8.73;7.93;;;-3.90;99.90;-5.30;100189;;;;583836;244;24088;-81
2021/12/07 04:27:39;;;;;;;10.77;9.67;;;-3.90;99.90;-5.20;100191;;;;575021;246;24149;-78
2021/12/07 04:30:08;;;;;;;10.40;8.53;;;-4.00;99.90;-5.20;100198;;;;574956;246;24144;-78
2021/12/07 04:32:36;;;;;;;13.87;10.70;;;-3.90;99.90;-5.20;100200;;;;574972;246;24126;-79
2021/12/07 04:35:07;;;;;;;11.20;9.27;;;-3.90;99.90;-5.20;100208;;;;572693;246;24080;-79
2021/12/07 04:37:32;;;;;;;6.63;5.93;;;-3.90;99.90;-5.20;100218;;;;574186;246;24150;-79
2021/12/07 04:40:04;;;;;;;7.70;7.03;;;-3.90;99.90;-5.30;100217;;;;574281;246;24102;-78
2021/12/07 04:42:28;;;;;;;7.07;6.37;;;-3.90;99.90;-5.30;100222;;;;583184;246;24096;-82
2021/12/07 04:45:00;;;;;;;6.13;5.53;;;-3.90;99.90;-5.30;100212;;;;574251;246;24201;-81
2021/12/07 04:47:40;;;;;;;7.10;6.40;;;-3.90;99.90;-5.30;100209;;;;573871;246;24085;-80
2021/12/07 04:58:03;;;;;;;7.00;6.30;;;-4.00;99.90;-5.30;100217;;;;582717;246;24113;-82
2021/12/07 05:00:31;;;;;;;6.23;5.73;;;-4.00;99.90;-5.30;100221;;;;573706;246;24104;-81
2021/12/07 05:03:06;;;;;;;6.60;5.77;;;-4.00;99.90;-5.20;100221;;;;574430;246;24098;-81
2021/12/07 05:05:33;;;;;;;6.43;5.83;;;-3.90;99.90;-5.20;100218;;;;574745;246;24113;-81
2021/12/07 05:08:00;;;;;;;6.03;5.43;;;-3.90;99.90;-5.30;100212;;;;573789;246;24101;-81
2021/12/07 05:10:31;;;;;;;6.10;5.53;;;-4.00;99.90;-5.30;100208;;;;574077;246;24074;-82
2021/12/07 05:13:52;;;;;;;6.70;5.83;;;-4.00;99.90;-5.40;100207;;;;574120;246;24133;-79
2021/12/07 05:15:54;;;;;;;7.00;6.33;;;-4.00;99.90;-5.40;100203;;;;575705;246;24087;-77
2021/12/07 05:18:04;;;;;;;7.90;7.03;;;-4.10;99.90;-5.40;100212;;;;574078;246;24105;-77
2021/12/07 05:39:33;;;;;;;6.63;5.93;;;-4.10;99.90;-5.40;100197;;;;573570;246;24135;-79
2021/12/07 05:42:01;;;;;;;7.90;7.20;;;-4.10;99.90;-5.50;100212;;;;573464;250;24092;-82
2021/12/07 05:44:29;;;;;;;7.50;6.53;;;-4.20;99.90;-5.50;100210;;;;573140;246;24099;-82
2021/12/07 05:46:58;;;;;;;6.53;5.93;;;-4.20;99.90;-5.60;100210;;;;582381;243;24052;-81
2021/12/07 05:49:29;;;;;;;7.00;6.03;;;-4.20;99.90;-5.70;100209;;;;582435;242;24087;-80
2021/12/07 05:51:54;;;;;;;4.83;4.37;;;-4.30;99.90;-5.70;100211;;;;580438;243;25078;-81
2021/12/07 05:54:22;;;;;;;6.10;5.60;;;-4.40;99.90;-5.90;100214;;;;582452;243;24060;-82
2021/12/07 05:56:50;;;;;;;6.37;5.57;;;-4.50;99.90;-6.00;100212;;;;581982;243;24092;-81
2021/12/07 05:59:18;;;;;;;10.70;7.37;;;-4.60;99.90;-6.00;100215;;;;581719;242;24062;-82
2021/12/07 06:01:49;;;;;;;6.63;5.93;;;-4.70;99.90;-6.20;100220;;;;568960;248;24116;-82
2021/12/07 06:04:14;;;;;;;6.43;5.60;;;-4.80;99.90;-6.40;100223;;;;569215;247;24107;-82
2021/12/07 06:06:42;;;;;;;7.43;6.60;;;-5.20;99.90;-6.60;100224;;;;583979;243;24073;-82
2021/12/07 06:09:10;;;;;;;7.17;6.47;;;-5.20;99.90;-6.80;100219;;;;569371;248;24086;-82
2021/12/07 06:11:41;;;;;;;9.63;8.57;;;-5.40;99.90;-6.90;100221;;;;569408;247;24081;-80
2021/12/07 06:14:09;;;;;;;10.27;8.33;;;-5.50;99.90;-7.00;100219;;;;586712;243;24058;-82
2021/12/07 06:16:34;;;;;;;9.00;6.90;;;-5.70;99.90;-7.20;100214;;;;584778;245;24102;-81
2021/12/07 06:19:02;;;;;;;9.53;8.63;;;-5.80;99.90;-7.30;100214;;;;575937;245;24174;-83
2021/12/07 06:21:30;;;;;;;9.60;8.33;;;-5.90;99.90;-7.30;100214;;;;575797;245;24138;-78
2021/12/07 06:23:58;;;;;;;8.90;8.00;;;-6.00;99.90;-7.40;100219;;;;575599;245;24062;-80
2021/12/07 06:26:26;;;;;;;12.47;9.50;;;-6.10;99.90;-7.50;100210;;;;575450;245;24091;-82
2021/12/07 06:28:53;;;;;;;14.47;11.10;;;-6.10;99.90;-7.60;100220;;;;575533;245;24098;-82
2021/12/07 06:31:22;;;;;;;10.53;9.43;;;-6.30;99.90;-7.70;100217;;;;575462;245;24070;-82
2021/12/07 06:33:51;;;;;;;10.13;9.00;;;-6.30;99.90;-7.70;100224;;;;575302;245;24079;-79
2021/12/07 06:36:20;;;;;;;13.43;7.97;;;-6.40;99.90;-7.70;100230;;;;575237;245;24150;-80
2021/12/07 06:38:48;;;;;;;8.57;7.67;;;-6.40;99.90;-7.80;100225;;;;575274;245;24066;-76
2021/12/07 06:41:16;;;;;;;12.33;8.33;;;-6.40;99.90;-7.80;100234;;;;575234;245;24066;-76
2021/12/07 06:43:44;;;;;;;9.23;8.17;;;-6.40;99.90;-7.90;100236;;;;575314;245;24112;-77
2021/12/07 06:46:12;;;;;;;11.87;8.30;;;-6.50;99.90;-7.90;100237;;;;575439;245;24086;-77
2021/12/07 06:48:40;;;;;;;9.97;8.90;;;-6.50;99.90;-7.90;100239;;;;575203;245;24086;-78
2021/12/07 06:51:08;;;;;;;11.23;9.00;;;-6.50;99.90;-8.00;100242;;;;575127;246;24059;-81
2021/12/07 06:53:36;;;;;;;10.07;9.07;;;-6.60;99.90;-8.00;100246;;;;575024;246;24089;-77
2021/12/07 06:56:04;;;;;;;17.67;12.43;;;-6.60;99.90;-7.90;100246;;;;575001;246;24069;-81
2021/12/07 06:58:32;;;;;;;15.73;12.00;;;-6.60;99.90;-8.00;100252;;;;579093;246;24129;-76
2021/12/07 07:00:59;;;;;;;18.47;15.03;;;-6.60;99.90;-7.90;100250;;;;575330;246;24069;-81
2021/12/07 07:03:27;;;;;;;66.87;45.03;;;-6.50;99.90;-7.90;100246;;;;575218;246;24080;-77
2021/12/07 07:05:55;;;;;;;36.23;23.23;;;-6.50;99.90;-7.90;100248;;;;575323;246;24105;-78
2021/12/07 07:08:23;;;;;;;27.83;18.60;;;-6.50;99.90;-7.80;100253;;;;575082;246;24145;-80
2021/12/07 07:10:51;;;;;;;36.93;26.93;;;-6.50;99.90;-7.90;100260;;;;575275;246;24222;-80
2021/12/07 07:13:22;;;;;;;43.53;29.00;;;-6.50;99.90;-7.90;100260;;;;574623;246;24067;-77
2021/12/07 07:15:50;;;;;;;18.37;14.83;;;-6.50;99.90;-7.80;100267;;;;574269;246;24087;-79
2021/12/07 07:18:15;;;;;;;30.97;20.20;;;-6.40;99.90;-7.80;100276;;;;574233;246;24177;-79
2021/12/07 07:20:43;;;;;;;12.43;9.13;;;-6.40;99.90;-7.80;100272;;;;574873;246;24243;-80
2021/12/07 07:23:11;;;;;;;11.80;10.53;;;-6.40;99.90;-7.70;100272;;;;574957;246;24115;-79
2021/12/07 07:25:39;;;;;;;15.10;12.23;;;-6.30;99.90;-7.70;100276;;;;575284;245;24108;-77
2021/12/07 07:28:07;;;;;;;8.93;8.03;;;-6.30;99.90;-7.70;100285;;;;575875;245;24082;-76
2021/12/07 07:30:37;;;;;;;13.97;10.87;;;-6.30;99.90;-7.70;100270;;;;575464;245;24078;-77
2021/12/07 07:33:02;;;;;;;12.70;10.40;;;-6.30;99.90;-7.70;100278;;;;575156;245;24080;-79
2021/12/07 07:35:30;;;;;;;9.73;8.27;;;-6.30;99.90;-7.60;100289;;;;575231;245;24076;-77
2021/12/07 07:38:01;;;;;;;10.40;7.93;;;-6.20;99.90;-7.50;100284;;;;575060;245;24124;-81
2021/12/07 07:40:26;;;;;;;9.57;8.57;;;-6.20;99.90;-7.50;100288;;;;583356;245;24107;-80
2021/12/07 07:42:54;;;;;;;9.63;7.87;;;-6.10;99.90;-7.40;100299;;;;575060;245;24078;-81
2021/12/07 07:45:22;;;;;;;9.33;7.50;;;-6.10;99.90;-7.40;100293;;;;574958;245;24088;-77
2021/12/07 07:47:50;;;;;;;10.27;8.23;;;-6.00;99.90;-7.40;100282;;;;575254;245;24066;-78
2021/12/07 07:50:21;;;;;;;17.02;10.90;;;-6.00;99.90;-7.30;100285;;;;563343;248;35528;-81
2021/12/07 07:52:47;;;;;;;18.33;10.93;;;-5.80;99.90;-7.20;100282;;;;563445;251;24163;-81
2021/12/07 07:55:14;;;;;;;24.37;13.13;;;-5.90;99.90;-7.10;100293;;;;567197;248;46417;-81
2021/12/07 07:57:42;;;;;;;15.23;9.98;;;-5.70;99.90;-7.10;100289;;;;557555;251;35459;-80
2021/12/07 08:00:10;;;;;;;17.25;10.15;;;-5.70;99.90;-7.00;100297;;;;566770;251;35435;-78
2021/12/07 08:02:39;;;;;;;31.50;16.30;;;-5.60;99.90;-7.00;100298;;;;563115;251;24135;-82
2021/12/07 08:05:08;;;;;;;26.93;15.33;;;-5.50;99.90;-6.90;100300;;;;563064;251;24145;-81
2021/12/07 08:07:36;;;;;;;32.30;21.17;;;-5.50;99.90;-6.90;100304;;;;574579;246;24127;-77
2021/12/07 08:10:05;;;;;;;27.43;18.93;;;-5.50;99.90;-6.90;100311;;;;573036;246;24085;-80
2021/12/07 08:12:36;;;;;;;14.57;13.07;;;-5.50;99.90;-6.80;100312;;;;574081;246;24090;-81
2021/12/07 08:15:01;;;;;;;13.93;9.87;;;-5.50;99.90;-6.80;100310;;;;574021;246;24092;-80
2021/12/07 08:17:29;;;;;;;14.23;10.80;;;-5.40;99.90;-6.80;100310;;;;572850;246;24090;-80
2021/12/07 08:19:57;;;;;;;20.87;13.53;;;-5.40;99.90;-6.70;100309;;;;583196;246;24112;-79
2021/12/07 08:22:28;;;;;;;15.27;11.73;;;-5.30;99.90;-6.70;100309;;;;583058;244;24088;-81
2021/12/07 08:24:53;;;;;;;34.93;19.87;;;-5.30;99.90;-6.60;100301;;;;574087;246;24084;-80
2021/12/07 08:27:21;;;;;;;18.90;12.37;;;-5.20;99.90;-6.50;100318;;;;583094;246;24163;-79
2021/12/07 08:29:48;;;;;;;18.17;12.43;;;-5.10;99.90;-6.40;100320;;;;582997;244;24110;-77
2021/12/07 08:32:16;;;;;;;16.03;12.03;;;-5.00;99.90;-6.30;100307;;;;583125;246;24130;-80
2021/12/07 08:34:47;;;;;;;11.13;9.03;;;-5.00;99.90;-6.30;100316;;;;582936;246;24080;-79
2021/12/07 08:37:12;;;;;;;16.23;11.77;;;-4.90;99.90;-6.30;100321;;;;579604;245;24099;-80
2021/12/07 08:39:40;;;;;;;14.57;11.07;;;-4.90;99.90;-6.30;100322;;;;575384;245;24088;-79
2021/12/07 08:42:11;;;;;;;13.37;9.37;;;-4.90;99.90;-6.20;100334;;;;583894;246;24070;-78
2021/12/07 08:44:36;;;;;;;14.30;8.77;;;-4.90;99.90;-6.20;100322;;;;574793;246;24098;-78
2021/12/07 08:47:04;;;;;;;10.87;7.80;;;-4.80;99.90;-6.20;100318;;;;574643;246;24138;-80
2021/12/07 08:49:32;;;;;;;13.13;8.60;;;-4.90;99.90;-6.20;100323;;;;575071;246;24054;-77
2021/12/07 08:52:00;;;;;;;14.20;9.93;;;-4.80;99.90;-6.20;100318;;;;575101;246;24078;-79
2021/12/07 08:59:54;;;;;;;13.37;8.87;;;-4.90;99.90;-6.20;100323;;;;573693;246;24080;-78
2021/12/07 09:02:22;;;;;;;14.03;9.93;;;-4.90;99.90;-6.20;100318;;;;574392;246;24107;-80
2021/12/07 09:04:54;;;;;;;16.27;10.90;;;-4.90;99.90;-6.30;100313;;;;578837;246;24123;-77
2021/12/07 09:07:19;;;;;;;13.93;9.13;;;-4.90;99.90;-6.30;100307;;;;574261;246;24099;-79
2021/12/07 09:09:48;;;;;;;11.70;8.57;;;-5.00;99.90;-6.30;100307;;;;574411;244;24092;-80
2021/12/07 09:12:16;;;;;;;12.53;10.30;;;-5.00;99.90;-6.30;100309;;;;583330;246;24166;-80
2021/12/07 09:14:44;;;;;;;12.20;10.27;;;-5.00;99.90;-6.40;100307;;;;582918;244;24194;-78
2021/12/07 09:17:12;;;;;;;12.00;9.20;;;-5.00;99.90;-6.30;100313;;;;583079;246;24125;-76
2021/12/07 09:19:44;;;;;;;11.93;7.97;;;-5.00;99.90;-6.40;100315;;;;578398;246;24096;-77
2021/12/07 09:22:09;;;;;;;15.20;8.93;;;-5.10;99.90;-6.40;100307;;;;583396;244;24147;-78
2021/12/07 09:24:40;;;;;;;10.23;8.37;;;-5.00;99.90;-6.40;100306;;;;574209;246;24110;-77
2021/12/07 09:27:05;;;;;;;13.97;9.20;;;-5.00;99.90;-6.30;100312;;;;582680;246;24104;-77
2021/12/07 09:29:37;;;;;;;11.13;8.50;;;-5.00;99.90;-6.30;100317;;;;574303;246;24111;-77
2021/12/07 09:32:01;;;;;;;16.27;10.60;;;-5.00;99.90;-6.30;100317;;;;578957;246;24077;-78
2021/12/07 09:34:29;;;;;;;15.07;9.07;;;-5.00;99.90;-6.20;100313;;;;574251;246;24093;-78
2021/12/07 09:36:57;;;;;;;10.23;8.70;;;-4.90;99.90;-6.20;100311;;;;574180;246;24079;-78
2021/12/07 09:39:24;;;;;;;13.47;9.37;;;-4.90;99.90;-6.20;100313;;;;574076;246;24074;-78
2021/12/07 09:41:52;;;;;;;14.07;9.80;;;-4.90;99.90;-6.20;100310;;;;574167;246;24070;-77
2021/12/07 09:44:20;;;;;;;12.40;10.07;;;-4.90;99.90;-6.20;100315;;;;574145;246;24077;-77
2021/12/07 09:46:48;;;;;;;13.57;10.40;;;-4.90;99.90;-6.20;100308;;;;583081;246;24192;-77
2021/12/07 09:49:17;;;;;;;12.17;8.80;;;-4.90;99.90;-6.10;100313;;;;574016;245;24071;-77
2021/12/07 09:51:44;;;;;;;16.40;10.93;;;-4.80;99.90;-6.10;100315;;;;585292;242;24042;-78
2021/12/07 09:54:12;;;;;;;13.70;10.10;;;-4.80;99.90;-6.10;100312;;;;584907;242;24038;-80
2021/12/07 09:56:41;;;;;;;10.40;8.03;;;-4.70;99.90;-6.00;100318;;;;584806;242;25093;-79
2021/12/07 09:59:09;;;;;;;14.83;9.27;;;-4.70;99.90;-6.00;100313;;;;576278;244;24058;-81
2021/12/07 10:01:36;;;;;;;9.63;8.20;;;-4.70;99.90;-5.90;100330;;;;580176;244;24088;-82
2021/12/07 10:04:08;;;;;;;10.33;7.67;;;-4.60;99.90;-5.90;100324;;;;575993;244;24074;-81
2021/12/07 10:06:33;;;;;;;12.63;7.80;;;-4.70;99.90;-5.90;100313;;;;575592;244;24106;-81
2021/12/07 10:09:01;;;;;;;12.10;8.90;;;-4.60;99.90;-5.90;100316;;;;588909;244;24094;-81
2021/12/07 10:11:31;;;;;;;13.20;9.20;;;-4.60;99.90;-5.90;100311;;;;573163;244;35159;-79
2021/12/07 10:13:57;;;;;;;8.60;6.63;;;-4.60;99.90;-5.80;100307;;;;579697;244;24099;-79
2021/12/07 10:16:24;;;;;;;8.13;6.37;;;-4.50;99.90;-5.70;100312;;;;588727;244;24068;-80
2021/12/07 10:18:52;;;;;;;12.17;8.27;;;-4.40;99.90;-5.70;100314;;;;588812;244;25117;-79
2021/12/07 10:21:27;;;;;;;9.13;6.53;;;-4.40;99.90;-5.70;100312;;;;578287;244;24078;-76
2021/12/07 10:23:54;;;;;;;7.57;6.20;;;-4.40;99.90;-5.70;100323;;;;582888;244;24087;-77
2021/12/07 10:26:24;;;;;;;13.23;9.27;;;-4.40;99.90;-5.70;100321;;;;580656;244;24075;-78
2021/12/07 10:28:55;;;;;;;9.32;7.28;;;-4.40;99.90;-5.70;100331;;;;570697;244;35087;-79
2021/12/07 10:31:32;;;;;;;13.67;8.47;;;-4.40;99.90;-5.70;100324;;;;580965;244;24078;-80
2021/12/07 10:34:06;;;;;;;12.53;7.93;;;-4.40;99.90;-5.70;100320;;;;581476;244;24084;-78
2021/12/07 10:36:43;;;;;;;7.23;6.53;;;-4.40;99.90;-5.70;100319;;;;579461;244;24051;-80
2021/12/07 10:39:16;;;;;;;8.43;6.93;;;-4.30;99.90;-5.70;100309;;;;579696;244;24054;-77
2021/12/07 10:41:56;;;;;;;7.13;6.27;;;-4.40;99.90;-5.60;100320;;;;582800;244;24054;-78
2021/12/07 10:44:27;;;;;;;7.10;5.97;;;-4.30;99.90;-5.60;100321;;;;588594;244;24132;-78
2021/12/07 10:46:56;;;;;;;10.97;6.27;;;-4.30;99.90;-5.70;100311;;;;575571;244;24043;-76
2021/12/07 10:49:51;;;;;;;9.87;7.03;;;-4.40;99.90;-5.70;100314;;;;580703;244;24091;-77
2021/12/07 10:52:40;;;;;;;8.60;6.13;;;-4.40;99.90;-5.70;100306;;;;575653;244;24058;-78
2021/12/07 10:55:16;;;;;;;9.53;7.67;;;-4.40;99.90;-5.70;100312;;;;582655;244;24081;-77
2021/12/07 10:57:47;;;;;;;8.87;7.63;;;-4.40;99.90;-5.70;100311;;;;588036;244;24054;-77
2021/12/07 11:00:16;;;;;;;7.17;5.50;;;-4.40;99.90;-5.70;100311;;;;579869;243;24088;-76
2021/12/07 11:02:45;;;;;;;9.33;6.00;;;-4.40;99.90;-5.70;100308;;;;580295;243;24084;-77
2021/12/07 11:05:13;;;;;;;6.77;6.00;;;-4.40;99.90;-5.60;100312;;;;579880;243;24102;-75
2021/12/07 11:07:40;;;;;;;6.63;5.10;;;-4.30;99.90;-5.60;100301;;;;574365;243;24095;-76
2021/12/07 11:10:17;;;;;;;7.10;5.53;;;-4.40;99.90;-5.70;100298;;;;579728;244;24096;-76
2021/12/07 11:12:45;;;;;;;7.73;6.93;;;-4.40;99.90;-5.70;100302;;;;579146;244;24125;-77
2021/12/07 11:15:14;;;;;;;7.83;5.97;;;-4.40;99.90;-5.70;100291;;;;579297;244;24047;-77
2021/12/07 11:17:35;;;;;;;6.93;5.67;;;-4.40;99.90;-5.70;100292;;;;579030;244;24069;-75
2021/12/07 11:20:03;;;;;;;11.27;7.60;;;-4.40;99.90;-5.70;100295;;;;575724;244;24073;-77
2021/12/07 11:22:32;;;;;;;8.10;5.33;;;-4.30;99.90;-5.70;100301;;;;588294;244;24129;-76
2021/12/07 11:25:02;;;;;;;6.23;4.90;;;-4.40;99.90;-5.70;100291;;;;580537;244;24060;-76
2021/12/07 11:30:22;;;;;;;6.37;4.90;;;-4.30;99.90;-5.60;100291;;;;577245;244;24128;-76
2021/12/07 11:32:51;;;;;;;10.50;5.63;;;-4.30;99.90;-5.70;100290;;;;580666;244;24086;-75
2021/12/07 11:35:27;;;;;;;8.67;4.63;;;-4.30;99.90;-5.60;100286;;;;579168;244;24054;-77
2021/12/07 11:37:56;;;;;;;5.83;4.73;;;-4.40;99.90;-5.60;100284;;;;579240;244;24107;-74
2021/12/07 11:40:24;;;;;;;10.30;6.33;;;-4.40;99.90;-5.70;100288;;;;575086;244;24051;-78
2021/12/07 11:42:52;;;;;;;7.27;5.27;;;-4.40;99.90;-5.70;100295;;;;574879;244;24065;-79
2021/12/07 11:45:30;;;;;;;7.27;6.43;;;-4.40;99.90;-5.70;100281;;;;579177;244;24046;-81
2021/12/07 11:48:00;;;;;;;5.33;4.83;;;-4.40;99.90;-5.70;100290;;;;580379;244;24084;-77
2021/12/07 11:50:37;;;;;;;8.43;6.60;;;-4.40;99.90;-5.70;100290;;;;581349;244;24059;-80
2021/12/07 11:53:05;;;;;;;7.80;5.30;;;-4.40;99.90;-5.70;100293;;;;575670;244;24113;-82
2021/12/07 11:55:35;;;;;;;7.40;4.80;;;-4.40;99.90;-5.70;100288;;;;578720;244;24088;-78
2021/12/07 11:58:04;;;;;;;7.53;5.27;;;-4.30;99.90;-5.70;100282;;;;572751;246;24118;-77
2021/12/07 12:00:34;;;;;;;9.47;6.60;;;-4.40;99.90;-5.70;100286;;;;593192;242;24090;-82
2021/12/07 12:03:00;;;;;;;8.00;6.07;;;-4.40;99.90;-5.70;100281;;;;573784;246;24122;-81
2021/12/07 12:05:28;;;;;;;9.50;5.97;;;-4.40;99.90;-5.60;100272;;;;576606;245;24117;-80
2021/12/07 12:07:56;;;;;;;16.30;7.67;;;-4.40;99.90;-5.60;100270;;;;576201;245;24074;-80
2021/12/07 12:10:27;;;;;;;11.73;7.60;;;-4.30;99.90;-5.60;100279;;;;573197;246;24155;-80
2021/12/07 12:13:13;;;;;;;11.77;5.80;;;-4.30;99.90;-5.60;100275;;;;572861;246;24094;-81
2021/12/07 12:16:17;;;;;;;10.43;7.77;;;-4.30;99.90;-5.60;100279;;;;585869;245;24079;-81
2021/12/07 12:19:06;;;;;;;12.83;8.37;;;-4.30;99.90;-5.60;100287;;;;585254;241;24146;-77
2021/12/07 12:21:48;;;;;;;16.07;7.57;;;-4.30;99.90;-5.60;100288;;;;584203;242;24087;-79
2021/12/07 12:24:44;;;;;;;13.10;6.87;;;-4.30;99.90;-5.60;100279;;;;582128;242;24060;-79
2021/12/07 12:27:11;;;;;;;26.77;12.67;;;-4.30;99.90;-5.60;100287;;;;584532;242;24153;-81
2021/12/07 12:29:39;;;;;;;14.77;7.43;;;-4.30;99.90;-5.50;100275;;;;584263;242;24094;-81
2021/12/07 12:32:11;;;;;;;9.37;5.50;;;-4.20;99.90;-5.50;100279;;;;584374;242;24070;-81
2021/12/07 12:34:48;;;;;;;13.37;5.00;;;-4.20;99.90;-5.50;100281;;;;584118;242;24072;-81
2021/12/07 12:37:16;;;;;;;7.73;5.63;;;-4.20;99.90;-5.40;100270;;;;584690;242;24083;-83
2021/12/07 12:40:05;;;;;;;14.63;8.70;;;-4.20;99.90;-5.40;100273;;;;581966;242;24057;-81